sensor_id;sensor_type;location;lat;lon;timestamp;temperature;humidity
26954;DHT22;14508;50.924;11.600;2023-04-10T00:01:28;3.30;99.90
26954;DHT22;14508;50.924;11.600;2023-04-10T00:04:01;3.30;99.90
26954;DHT22;14508;50.924;11.600;2023-04-10T00:06:29;3.20;99.90
26954;DHT22;14508;50.924;11.600;2023-04-10T00:08:58;3.20;99.90
26954;DHT22;14508;50.924;11.600;2023-04-10T00:11:26;3.10;99.90
26954;DHT22;14508;50.924;11.600;2023-04-10T00:13:54;3.10;99.90
26954;DHT22;14508;50.924;11.600;2023-04-10T00:16:22;3.10;99.90
26954;DHT22;14508;50.924;11.600;2023-04-10T00:18:50;3.10;99.90
26954;DHT22;14508;50.924;11.600;2023-04-10T00:21:18;3.10;99.90
26954;DHT22;14508;50.924;11.600;2023-04-10T00:23:45;3.00;99.90
26954;DHT22;14508;50.924;11.600;2023-04-10T00:26:15;3.00;99.90
26954;DHT22;14508;50.924;11.600;2023-04-10T00:28:44;2.90;99.90
26954;DHT22;14508;50.924;11.600;2023-04-10T00:31:11;2.90;99.90
26954;DHT22;14508;50.924;11.600;2023-04-10T00:33:39;2.90;99.90
26954;DHT22;14508;50.924;11.600;2023-04-10T00:36:07;2.90;99.90
26954;DHT22;14508;50.924;11.600;2023-04-10T00:38:35;2.90;99.90
26954;DHT22;14508;50.924;11.600;2023-04-10T00:41:04;2.90;99.90
26954;DHT22;14508;50.924;11.600;2023-04-10T00:43:34;2.80;99.90
26954;DHT22;14508;50.924;11.600;2023-04-10T00:46:03;2.80;99.90
26954;DHT22;14508;50.924;11.600;2023-04-10T00:48:31;2.70;99.90
26954;DHT22;14508;50.924;11.600;2023-04-10T00:50:59;2.70;99.90
26954;DHT22;14508;50.924;11.600;2023-04-10T00:53:27;2.70;99.90
26954;DHT22;14508;50.924;11.600;2023-04-10T00:55:55;2.60;99.90
26954;DHT22;14508;50.924;11.600;2023-04-10T00:58:23;2.60;99.90
26954;DHT22;14508;50.924;11.600;2023-04-10T01:00:54;2.60;99.90
26954;DHT22;14508;50.924;11.600;2023-04-10T01:03:22;2.60;99.90
26954;DHT22;14508;50.924;11.600;2023-04-10T01:05:57;2.60;99.90
26954;DHT22;14508;50.924;11.600;2023-04-10T01:08:38;2.50;99.90
26954;DHT22;14508;50.924;11.600;2023-04-10T01:11:19;2.50;99.90
26954;DHT22;14508;50.924;11.600;2023-04-10T01:13:56;2.40;99.90
26954;DHT22;14508;50.924;11.600;2023-04-10T01:16:35;2.40;99.90
26954;DHT22;14508;50.924;11.600;2023-04-10T01:19:06;2.30;99.90
26954;DHT22;14508;50.924;11.600;2023-04-10T01:21:35;2.40;99.90
26954;DHT22;14508;50.924;11.600;2023-04-10T01:24:17;2.40;99.90
26954;DHT22;14508;50.924;11.600;2023-04-10T01:26:59;2.40;99.90
26954;DHT22;14508;50.924;11.600;2023-04-10T01:29:31;2.40;99.90
26954;DHT22;14508;50.924;11.600;2023-04-10T01:32:02;2.40;99.90
26954;DHT22;14508;50.924;11.600;2023-04-10T01:34:34;2.40;99.90
26954;DHT22;14508;50.924;11.600;2023-04-10T01:37:04;2.40;99.90
26954;DHT22;14508;50.924;11.600;2023-04-10T01:39:36;2.30;99.90
26954;DHT22;14508;50.924;11.600;2023-04-10T01:42:07;2.30;99.90
26954;DHT22;14508;50.924;11.600;2023-04-10T01:44:41;2.20;99.90
26954;DHT22;14508;50.924;11.600;2023-04-10T01:47:13;2.20;99.90
26954;DHT22;14508;50.924;11.600;2023-04-10T01:49:43;2.20;99.90
26954;DHT22;14508;50.924;11.600;2023-04-10T01:52:13;2.20;99.90
26954;DHT22;14508;50.924;11.600;2023-04-10T01:54:46;2.10;99.90
26954;DHT22;14508;50.924;11.600;2023-04-10T01:57:21;2.10;99.90
26954;DHT22;14508;50.924;11.600;2023-04-10T01:59:57;2.10;99.90
26954;DHT22;14508;50.924;11.600;2023-04-10T02:02:29;2.10;99.90
26954;DHT22;14508;50.924;11.600;2023-04-10T02:04:57;2.00;99.90
26954;DHT22;14508;50.924;11.600;2023-04-10T02:07:30;2.00;99.90
26954;DHT22;14508;50.924;11.600;2023-04-10T02:10:01;2.00;99.90
26954;DHT22;14508;50.924;11.600;2023-04-10T02:12:37;1.90;99.90
26954;DHT22;14508;50.924;11.600;2023-04-10T02:15:08;1.90;99.90
26954;DHT22;14508;50.924;11.600;2023-04-10T02:17:38;1.90;99.90
26954;DHT22;14508;50.924;11.600;2023-04-10T02:20:07;1.90;99.90
26954;DHT22;14508;50.924;11.600;2023-04-10T02:22:39;1.90;99.90
26954;DHT22;14508;50.924;11.600;2023-04-10T02:25:09;1.90;99.90
26954;DHT22;14508;50.924;11.600;2023-04-10T02:27:38;1.90;99.90
26954;DHT22;14508;50.924;11.600;2023-04-10T02:30:09;1.90;99.90
26954;DHT22;14508;50.924;11.600;2023-04-10T02:32:37;1.90;99.90
26954;DHT22;14508;50.924;11.600;2023-04-10T02:35:07;1.80;99.90
26954;DHT22;14508;50.924;11.600;2023-04-10T02:37:36;1.80;99.90
26954;DHT22;14508;50.924;11.600;2023-04-10T02:40:06;1.70;99.90
26954;DHT22;14508;50.924;11.600;2023-04-10T02:42:45;1.70;99.90
26954;DHT22;14508;50.924;11.600;2023-04-10T02:45:15;1.70;99.90
26954;DHT22;14508;50.924;11.600;2023-04-10T02:47:43;1.70;99.90
26954;DHT22;14508;50.924;11.600;2023-04-10T02:50:11;1.70;99.90
26954;DHT22;14508;50.924;11.600;2023-04-10T02:52:42;1.70;99.90
26954;DHT22;14508;50.924;11.600;2023-04-10T02:55:10;1.70;99.90
26954;DHT22;14508;50.924;11.600;2023-04-10T02:57:39;1.70;99.90
26954;DHT22;14508;50.924;11.600;2023-04-10T03:00:09;1.70;99.90
26954;DHT22;14508;50.924;11.600;2023-04-10T03:03:05;1.60;99.90
26954;DHT22;14508;50.924;11.600;2023-04-10T03:05:45;1.60;99.90
26954;DHT22;14508;50.924;11.600;2023-04-10T03:08:17;1.50;99.90
26954;DHT22;14508;50.924;11.600;2023-04-10T03:10:46;1.50;99.90
26954;DHT22;14508;50.924;11.600;2023-04-10T03:13:14;1.50;99.90
26954;DHT22;14508;50.924;11.600;2023-04-10T03:15:42;1.50;99.90
26954;DHT22;14508;50.924;11.600;2023-04-10T03:18:12;1.60;99.90
26954;DHT22;14508;50.924;11.600;2023-04-10T03:20:42;1.50;99.90
26954;DHT22;14508;50.924;11.600;2023-04-10T03:23:11;1.60;99.90
26954;DHT22;14508;50.924;11.600;2023-04-10T03:25:39;1.60;99.90
26954;DHT22;14508;50.924;11.600;2023-04-10T03:28:08;1.60;99.90
26954;DHT22;14508;50.924;11.600;2023-04-10T03:30:36;1.50;99.90
26954;DHT22;14508;50.924;11.600;2023-04-10T03:33:04;1.50;99.90
26954;DHT22;14508;50.924;11.600;2023-04-10T03:35:33;1.40;99.90
26954;DHT22;14508;50.924;11.600;2023-04-10T03:38:01;1.40;99.90
26954;DHT22;14508;50.924;11.600;2023-04-10T03:40:29;1.40;99.90
26954;DHT22;14508;50.924;11.600;2023-04-10T03:42:56;1.40;99.90
26954;DHT22;14508;50.924;11.600;2023-04-10T03:45:27;1.30;99.90
26954;DHT22;14508;50.924;11.600;2023-04-10T03:47:55;1.30;99.90
26954;DHT22;14508;50.924;11.600;2023-04-10T03:50:23;1.30;99.90
26954;DHT22;14508;50.924;11.600;2023-04-10T03:52:59;1.30;99.90
26954;DHT22;14508;50.924;11.600;2023-04-10T03:55:27;1.30;99.90
26954;DHT22;14508;50.924;11.600;2023-04-10T03:57:55;1.20;99.90
26954;DHT22;14508;50.924;11.600;2023-04-10T04:00:24;1.20;99.90
26954;DHT22;14508;50.924;11.600;2023-04-10T04:03:00;1.20;99.90
26954;DHT22;14508;50.924;11.600;2023-04-10T04:06:00;1.20;99.90
26954;DHT22;14508;50.924;11.600;2023-04-10T04:08:37;1.10;99.90
26954;DHT22;14508;50.924;11.600;2023-04-10T04:11:17;1.10;99.90
26954;DHT22;14508;50.924;11.600;2023-04-10T04:13:53;1.10;99.90
26954;DHT22;14508;50.924;11.600;2023-04-10T04:16:40;1.10;99.90
26954;DHT22;14508;50.924;11.600;2023-04-10T04:19:31;1.10;99.90
26954;DHT22;14508;50.924;11.600;2023-04-10T04:22:22;1.10;99.90
26954;DHT22;14508;50.924;11.600;2023-04-10T04:25:10;1.10;99.90
26954;DHT22;14508;50.924;11.600;2023-04-10T04:27:56;1.10;99.90
26954;DHT22;14508;50.924;11.600;2023-04-10T04:30:30;1.20;99.90
26954;DHT22;14508;50.924;11.600;2023-04-10T04:33:18;1.20;99.90
26954;DHT22;14508;50.924;11.600;2023-04-10T04:35:56;1.20;99.90
26954;DHT22;14508;50.924;11.600;2023-04-10T04:38:37;1.20;99.90
26954;DHT22;14508;50.924;11.600;2023-04-10T04:41:26;1.10;99.90
26954;DHT22;14508;50.924;11.600;2023-04-10T04:44:05;1.10;99.90
26954;DHT22;14508;50.924;11.600;2023-04-10T04:46:56;1.10;99.90
26954;DHT22;14508;50.924;11.600;2023-04-10T04:49:27;1.10;99.90
26954;DHT22;14508;50.924;11.600;2023-04-10T04:52:13;1.10;99.90
26954;DHT22;14508;50.924;11.600;2023-04-10T04:54:45;1.20;99.90
26954;DHT22;14508;50.924;11.600;2023-04-10T04:57:22;1.30;99.90
26954;DHT22;14508;50.924;11.600;2023-04-10T05:00:03;1.30;99.90
26954;DHT22;14508;50.924;11.600;2023-04-10T05:02:46;1.30;99.90
26954;DHT22;14508;50.924;11.600;2023-04-10T05:05:32;1.40;99.90
26954;DHT22;14508;50.924;11.600;2023-04-10T05:08:23;1.40;99.90
26954;DHT22;14508;50.924;11.600;2023-04-10T05:11:02;1.40;99.90
26954;DHT22;14508;50.924;11.600;2023-04-10T05:13:38;1.50;99.90
26954;DHT22;14508;50.924;11.600;2023-04-10T05:16:13;1.50;99.90
26954;DHT22;14508;50.924;11.600;2023-04-10T05:19:13;1.50;99.90
26954;DHT22;14508;50.924;11.600;2023-04-10T05:21:48;1.60;99.90
26954;DHT22;14508;50.924;11.600;2023-04-10T05:24:34;1.70;99.90
26954;DHT22;14508;50.924;11.600;2023-04-10T05:27:13;1.80;99.90
26954;DHT22;14508;50.924;11.600;2023-04-10T05:30:02;1.90;99.90
26954;DHT22;14508;50.924;11.600;2023-04-10T05:32:49;1.90;99.90
26954;DHT22;14508;50.924;11.600;2023-04-10T05:35:44;2.00;99.90
26954;DHT22;14508;50.924;11.600;2023-04-10T05:38:23;2.10;99.90
26954;DHT22;14508;50.924;11.600;2023-04-10T05:41:14;2.30;99.90
26954;DHT22;14508;50.924;11.600;2023-04-10T05:43:57;2.40;99.90
26954;DHT22;14508;50.924;11.600;2023-04-10T05:46:44;2.60;99.90
26954;DHT22;14508;50.924;11.600;2023-04-10T05:49:47;2.80;99.90
26954;DHT22;14508;50.924;11.600;2023-04-10T05:52:38;2.90;99.90
26954;DHT22;14508;50.924;11.600;2023-04-10T05:55:25;3.00;99.90
26954;DHT22;14508;50.924;11.600;2023-04-10T05:58:02;3.20;99.90
26954;DHT22;14508;50.924;11.600;2023-04-10T06:00:50;3.30;99.90
26954;DHT22;14508;50.924;11.600;2023-04-10T06:03:49;3.40;99.90
26954;DHT22;14508;50.924;11.600;2023-04-10T06:06:19;3.50;99.90
26954;DHT22;14508;50.924;11.600;2023-04-10T06:08:48;3.50;99.90
26954;DHT22;14508;50.924;11.600;2023-04-10T06:11:16;3.50;99.90
26954;DHT22;14508;50.924;11.600;2023-04-10T06:13:49;3.50;99.90
26954;DHT22;14508;50.924;11.600;2023-04-10T06:16:18;3.60;99.90
26954;DHT22;14508;50.924;11.600;2023-04-10T06:18:47;3.60;99.90
26954;DHT22;14508;50.924;11.600;2023-04-10T06:21:22;3.70;99.90
26954;DHT22;14508;50.924;11.600;2023-04-10T06:23:50;3.80;99.90
26954;DHT22;14508;50.924;11.600;2023-04-10T06:26:18;3.90;99.90
26954;DHT22;14508;50.924;11.600;2023-04-10T06:28:46;4.00;99.90
26954;DHT22;14508;50.924;11.600;2023-04-10T06:31:16;4.10;99.90
26954;DHT22;14508;50.924;11.600;2023-04-10T06:33:44;4.30;99.90
26954;DHT22;14508;50.924;11.600;2023-04-10T06:36:12;4.40;99.90
26954;DHT22;14508;50.924;11.600;2023-04-10T06:38:47;4.60;99.90
26954;DHT22;14508;50.924;11.600;2023-04-10T06:41:15;4.70;99.90
26954;DHT22;14508;50.924;11.600;2023-04-10T06:43:43;4.90;99.90
26954;DHT22;14508;50.924;11.600;2023-04-10T06:46:12;5.00;99.90
26954;DHT22;14508;50.924;11.600;2023-04-10T06:48:41;5.10;99.90
26954;DHT22;14508;50.924;11.600;2023-04-10T06:51:10;5.20;99.90
26954;DHT22;14508;50.924;11.600;2023-04-10T06:53:38;5.30;99.90
26954;DHT22;14508;50.924;11.600;2023-04-10T06:56:08;5.30;99.90
26954;DHT22;14508;50.924;11.600;2023-04-10T06:58:36;5.40;99.90
26954;DHT22;14508;50.924;11.600;2023-04-10T07:01:04;5.50;99.90
26954;DHT22;14508;50.924;11.600;2023-04-10T07:03:32;5.70;99.90
26954;DHT22;14508;50.924;11.600;2023-04-10T07:06:00;5.80;99.90
26954;DHT22;14508;50.924;11.600;2023-04-10T07:08:29;6.00;99.90
26954;DHT22;14508;50.924;11.600;2023-04-10T07:10:57;6.10;99.90
26954;DHT22;14508;50.924;11.600;2023-04-10T07:13:26;6.30;99.90
26954;DHT22;14508;50.924;11.600;2023-04-10T07:15:54;6.50;99.90
26954;DHT22;14508;50.924;11.600;2023-04-10T07:18:21;6.70;99.90
26954;DHT22;14508;50.924;11.600;2023-04-10T07:20:50;6.90;99.90
26954;DHT22;14508;50.924;11.600;2023-04-10T07:23:18;7.00;99.90
26954;DHT22;14508;50.924;11.600;2023-04-10T07:25:46;7.10;99.90
26954;DHT22;14508;50.924;11.600;2023-04-10T07:28:14;7.20;99.90
26954;DHT22;14508;50.924;11.600;2023-04-10T07:30:43;7.40;99.90
26954;DHT22;14508;50.924;11.600;2023-04-10T07:33:11;7.50;99.90
26954;DHT22;14508;50.924;11.600;2023-04-10T07:35:39;7.70;99.90
26954;DHT22;14508;50.924;11.600;2023-04-10T07:38:07;7.80;99.90
26954;DHT22;14508;50.924;11.600;2023-04-10T07:40:35;8.00;99.90
26954;DHT22;14508;50.924;11.600;2023-04-10T07:43:03;8.10;99.90
26954;DHT22;14508;50.924;11.600;2023-04-10T07:45:31;8.20;99.90
26954;DHT22;14508;50.924;11.600;2023-04-10T07:48:00;8.40;99.90
26954;DHT22;14508;50.924;11.600;2023-04-10T07:50:29;8.50;99.90
26954;DHT22;14508;50.924;11.600;2023-04-10T07:52:57;8.60;99.90
26954;DHT22;14508;50.924;11.600;2023-04-10T07:55:29;8.70;99.90
26954;DHT22;14508;50.924;11.600;2023-04-10T07:57:56;8.90;99.90
26954;DHT22;14508;50.924;11.600;2023-04-10T08:00:24;9.10;99.90
26954;DHT22;14508;50.924;11.600;2023-04-10T08:02:52;9.30;99.90
26954;DHT22;14508;50.924;11.600;2023-04-10T08:05:22;9.60;99.90
26954;DHT22;14508;50.924;11.600;2023-04-10T08:07:50;9.80;99.90
26954;DHT22;14508;50.924;11.600;2023-04-10T08:10:18;10.00;99.90
26954;DHT22;14508;50.924;11.600;2023-04-10T08:12:46;10.10;99.90
26954;DHT22;14508;50.924;11.600;2023-04-10T08:15:14;10.30;99.90
26954;DHT22;14508;50.924;11.600;2023-04-10T08:17:41;10.50;99.90
26954;DHT22;14508;50.924;11.600;2023-04-10T08:20:10;10.80;99.90
26954;DHT22;14508;50.924;11.600;2023-04-10T08:22:40;11.10;99.90
26954;DHT22;14508;50.924;11.600;2023-04-10T08:25:08;11.40;97.80
26954;DHT22;14508;50.924;11.600;2023-04-10T08:27:36;11.60;93.60
26954;DHT22;14508;50.924;11.600;2023-04-10T08:30:05;11.70;91.10
26954;DHT22;14508;50.924;11.600;2023-04-10T08:32:34;11.90;88.60
26954;DHT22;14508;50.924;11.600;2023-04-10T08:35:02;12.00;82.50
26954;DHT22;14508;50.924;11.600;2023-04-10T08:37:30;12.10;77.10
26954;DHT22;14508;50.924;11.600;2023-04-10T08:39:59;12.30;78.60
26954;DHT22;14508;50.924;11.600;2023-04-10T08:42:27;12.40;77.60
26954;DHT22;14508;50.924;11.600;2023-04-10T08:44:55;12.60;77.00
26954;DHT22;14508;50.924;11.600;2023-04-10T08:47:26;12.90;75.40
26954;DHT22;14508;50.924;11.600;2023-04-10T08:49:56;13.10;72.10
26954;DHT22;14508;50.924;11.600;2023-04-10T08:52:25;13.30;71.30
26954;DHT22;14508;50.924;11.600;2023-04-10T08:54:55;13.40;70.40
26954;DHT22;14508;50.924;11.600;2023-04-10T08:57:25;13.60;69.70
26954;DHT22;14508;50.924;11.600;2023-04-10T08:59:53;13.70;66.40
26954;DHT22;14508;50.924;11.600;2023-04-10T09:02:22;13.70;65.80
26954;DHT22;14508;50.924;11.600;2023-04-10T09:04:52;13.70;65.80
26954;DHT22;14508;50.924;11.600;2023-04-10T09:07:21;13.80;65.20
26954;DHT22;14508;50.924;11.600;2023-04-10T09:09:49;13.90;65.20
26954;DHT22;14508;50.924;11.600;2023-04-10T09:12:17;14.00;64.90
26954;DHT22;14508;50.924;11.600;2023-04-10T09:14:46;14.20;64.60
26954;DHT22;14508;50.924;11.600;2023-04-10T09:17:21;14.40;63.50
26954;DHT22;14508;50.924;11.600;2023-04-10T09:19:53;14.50;61.70
26954;DHT22;14508;50.924;11.600;2023-04-10T09:22:29;14.50;60.90
26954;DHT22;14508;50.924;11.600;2023-04-10T09:24:58;14.60;60.90
26954;DHT22;14508;50.924;11.600;2023-04-10T09:27:28;14.60;60.50
26954;DHT22;14508;50.924;11.600;2023-04-10T09:29:59;14.60;60.20
26954;DHT22;14508;50.924;11.600;2023-04-10T09:32:39;14.70;60.00
26954;DHT22;14508;50.924;11.600;2023-04-10T09:35:08;14.80;59.90
26954;DHT22;14508;50.924;11.600;2023-04-10T09:37:37;15.00;59.70
26954;DHT22;14508;50.924;11.600;2023-04-10T09:40:18;15.10;58.90
26954;DHT22;14508;50.924;11.600;2023-04-10T09:42:46;15.20;57.80
26954;DHT22;14508;50.924;11.600;2023-04-10T09:45:16;15.20;57.60
26954;DHT22;14508;50.924;11.600;2023-04-10T09:48:00;15.30;57.30
26954;DHT22;14508;50.924;11.600;2023-04-10T09:50:33;15.40;56.50
26954;DHT22;14508;50.924;11.600;2023-04-10T09:53:05;15.40;56.20
26954;DHT22;14508;50.924;11.600;2023-04-10T09:55:33;15.30;55.60
26954;DHT22;14508;50.924;11.600;2023-04-10T09:58:03;15.30;55.10
26954;DHT22;14508;50.924;11.600;2023-04-10T10:00:36;15.30;55.00
26954;DHT22;14508;50.924;11.600;2023-04-10T10:03:07;15.30;55.40
26954;DHT22;14508;50.924;11.600;2023-04-10T10:05:38;15.30;55.20
26954;DHT22;14508;50.924;11.600;2023-04-10T10:08:08;15.30;55.20
26954;DHT22;14508;50.924;11.600;2023-04-10T10:10:38;15.30;55.10
26954;DHT22;14508;50.924;11.600;2023-04-10T10:13:07;15.30;55.20
26954;DHT22;14508;50.924;11.600;2023-04-10T10:15:43;15.30;55.50
26954;DHT22;14508;50.924;11.600;2023-04-10T10:18:17;15.30;55.60
26954;DHT22;14508;50.924;11.600;2023-04-10T10:20:48;15.30;55.30
26954;DHT22;14508;50.924;11.600;2023-04-10T10:23:18;15.30;55.20
26954;DHT22;14508;50.924;11.600;2023-04-10T10:25:48;15.30;55.40
26954;DHT22;14508;50.924;11.600;2023-04-10T10:28:17;15.50;55.20
26954;DHT22;14508;50.924;11.600;2023-04-10T10:30:47;15.60;54.80
26954;DHT22;14508;50.924;11.600;2023-04-10T10:33:15;15.70;54.50
26954;DHT22;14508;50.924;11.600;2023-04-10T10:35:44;15.80;54.20
26954;DHT22;14508;50.924;11.600;2023-04-10T10:38:12;15.90;54.30
26954;DHT22;14508;50.924;11.600;2023-04-10T10:40:48;15.90;53.90
26954;DHT22;14508;50.924;11.600;2023-04-10T10:43:23;16.00;53.70
26954;DHT22;14508;50.924;11.600;2023-04-10T10:46:03;16.00;53.50
26954;DHT22;14508;50.924;11.600;2023-04-10T10:48:33;16.00;53.00
26954;DHT22;14508;50.924;11.600;2023-04-10T10:51:01;16.10;53.10
26954;DHT22;14508;50.924;11.600;2023-04-10T10:53:35;16.10;52.70
26954;DHT22;14508;50.924;11.600;2023-04-10T10:56:32;16.20;52.70
26954;DHT22;14508;50.924;11.600;2023-04-10T10:59:00;16.20;52.50
26954;DHT22;14508;50.924;11.600;2023-04-10T11:01:30;16.30;52.20
26954;DHT22;14508;50.924;11.600;2023-04-10T11:03:58;16.30;52.20
26954;DHT22;14508;50.924;11.600;2023-04-10T11:06:48;16.30;51.70
26954;DHT22;14508;50.924;11.600;2023-04-10T11:09:49;16.30;51.00
26954;DHT22;14508;50.924;11.600;2023-04-10T11:12:20;16.20;50.60
26954;DHT22;14508;50.924;11.600;2023-04-10T11:14:56;16.20;50.80
26954;DHT22;14508;50.924;11.600;2023-04-10T11:17:50;16.10;50.70
26954;DHT22;14508;50.924;11.600;2023-04-10T11:20:20;16.20;51.00
26954;DHT22;14508;50.924;11.600;2023-04-10T11:23:09;16.30;49.90
26954;DHT22;14508;50.924;11.600;2023-04-10T11:25:48;16.20;49.70
26954;DHT22;14508;50.924;11.600;2023-04-10T11:28:38;16.30;49.70
26954;DHT22;14508;50.924;11.600;2023-04-10T11:31:17;16.40;49.80
26954;DHT22;14508;50.924;11.600;2023-04-10T11:33:47;16.40;49.20
26954;DHT22;14508;50.924;11.600;2023-04-10T11:36:17;16.40;49.20
26954;DHT22;14508;50.924;11.600;2023-04-10T11:38:55;16.40;49.00
26954;DHT22;14508;50.924;11.600;2023-04-10T11:41:28;16.50;49.50
26954;DHT22;14508;50.924;11.600;2023-04-10T11:43:57;16.60;49.20
26954;DHT22;14508;50.924;11.600;2023-04-10T11:46:24;16.70;48.40
26954;DHT22;14508;50.924;11.600;2023-04-10T11:48:54;16.90;47.60
26954;DHT22;14508;50.924;11.600;2023-04-10T11:51:22;16.90;47.80
26954;DHT22;14508;50.924;11.600;2023-04-10T11:54:03;17.10;48.30
26954;DHT22;14508;50.924;11.600;2023-04-10T11:56:31;17.20;47.40
26954;DHT22;14508;50.924;11.600;2023-04-10T11:58:59;17.10;45.40
26954;DHT22;14508;50.924;11.600;2023-04-10T12:01:28;17.10;45.40
26954;DHT22;14508;50.924;11.600;2023-04-10T12:03:58;17.10;45.40
26954;DHT22;14508;50.924;11.600;2023-04-10T12:06:26;17.10;45.30
26954;DHT22;14508;50.924;11.600;2023-04-10T12:08:54;17.10;44.90
26954;DHT22;14508;50.924;11.600;2023-04-10T12:11:24;17.20;45.30
26954;DHT22;14508;50.924;11.600;2023-04-10T12:13:53;17.20;45.20
26954;DHT22;14508;50.924;11.600;2023-04-10T12:16:22;17.30;45.50
26954;DHT22;14508;50.924;11.600;2023-04-10T12:18:50;17.30;46.00
26954;DHT22;14508;50.924;11.600;2023-04-10T12:21:20;17.20;44.70
26954;DHT22;14508;50.924;11.600;2023-04-10T12:23:48;17.30;45.30
26954;DHT22;14508;50.924;11.600;2023-04-10T12:26:17;17.30;45.30
26954;DHT22;14508;50.924;11.600;2023-04-10T12:28:50;17.40;44.80
26954;DHT22;14508;50.924;11.600;2023-04-10T12:31:25;17.40;45.10
26954;DHT22;14508;50.924;11.600;2023-04-10T12:33:54;17.40;45.20
26954;DHT22;14508;50.924;11.600;2023-04-10T12:36:26;17.50;44.90
26954;DHT22;14508;50.924;11.600;2023-04-10T12:38:56;17.50;45.00
26954;DHT22;14508;50.924;11.600;2023-04-10T12:41:25;17.40;44.70
26954;DHT22;14508;50.924;11.600;2023-04-10T12:44:05;17.40;44.60
26954;DHT22;14508;50.924;11.600;2023-04-10T12:46:34;17.30;44.10
26954;DHT22;14508;50.924;11.600;2023-04-10T12:49:10;17.30;43.80
26954;DHT22;14508;50.924;11.600;2023-04-10T12:51:43;17.40;43.50
26954;DHT22;14508;50.924;11.600;2023-04-10T12:54:26;17.50;43.50
26954;DHT22;14508;50.924;11.600;2023-04-10T12:56:54;17.50;43.60
26954;DHT22;14508;50.924;11.600;2023-04-10T12:59:21;17.60;44.20
26954;DHT22;14508;50.924;11.600;2023-04-10T13:01:50;17.60;44.10
26954;DHT22;14508;50.924;11.600;2023-04-10T13:04:18;17.60;43.60
26954;DHT22;14508;50.924;11.600;2023-04-10T13:06:48;17.70;43.60
26954;DHT22;14508;50.924;11.600;2023-04-10T13:09:18;17.70;43.50
26954;DHT22;14508;50.924;11.600;2023-04-10T13:11:46;17.70;43.40
26954;DHT22;14508;50.924;11.600;2023-04-10T13:14:17;17.60;42.80
26954;DHT22;14508;50.924;11.600;2023-04-10T13:16:45;17.60;43.10
26954;DHT22;14508;50.924;11.600;2023-04-10T13:19:13;17.60;42.50
26954;DHT22;14508;50.924;11.600;2023-04-10T13:21:41;17.50;41.50
26954;DHT22;14508;50.924;11.600;2023-04-10T13:24:10;17.40;42.10
26954;DHT22;14508;50.924;11.600;2023-04-10T13:26:41;17.30;43.40
26954;DHT22;14508;50.924;11.600;2023-04-10T13:29:09;17.30;43.50
26954;DHT22;14508;50.924;11.600;2023-04-10T13:31:37;17.40;43.30
26954;DHT22;14508;50.924;11.600;2023-04-10T13:34:05;17.50;43.30
26954;DHT22;14508;50.924;11.600;2023-04-10T13:36:33;17.50;43.70
26954;DHT22;14508;50.924;11.600;2023-04-10T13:39:01;17.60;43.60
26954;DHT22;14508;50.924;11.600;2023-04-10T13:41:30;17.60;43.60
26954;DHT22;14508;50.924;11.600;2023-04-10T13:43:58;17.70;44.00
26954;DHT22;14508;50.924;11.600;2023-04-10T13:46:26;17.80;43.80
26954;DHT22;14508;50.924;11.600;2023-04-10T13:48:54;17.80;43.40
26954;DHT22;14508;50.924;11.600;2023-04-10T13:51:23;17.80;43.90
26954;DHT22;14508;50.924;11.600;2023-04-10T13:53:51;17.80;44.00
26954;DHT22;14508;50.924;11.600;2023-04-10T13:56:19;17.90;44.00
26954;DHT22;14508;50.924;11.600;2023-04-10T13:58:48;17.90;43.80
26954;DHT22;14508;50.924;11.600;2023-04-10T14:01:16;17.90;43.90
26954;DHT22;14508;50.924;11.600;2023-04-10T14:03:44;17.90;43.90
26954;DHT22;14508;50.924;11.600;2023-04-10T14:06:12;17.80;43.80
26954;DHT22;14508;50.924;11.600;2023-04-10T14:08:40;17.80;44.20
26954;DHT22;14508;50.924;11.600;2023-04-10T14:11:08;17.90;44.40
26954;DHT22;14508;50.924;11.600;2023-04-10T14:13:36;18.00;44.10
26954;DHT22;14508;50.924;11.600;2023-04-10T14:16:06;18.00;44.10
26954;DHT22;14508;50.924;11.600;2023-04-10T14:18:35;18.00;44.10
26954;DHT22;14508;50.924;11.600;2023-04-10T14:21:03;18.10;44.00
26954;DHT22;14508;50.924;11.600;2023-04-10T14:23:31;18.10;44.10
26954;DHT22;14508;50.924;11.600;2023-04-10T14:25:59;18.00;43.60
26954;DHT22;14508;50.924;11.600;2023-04-10T14:28:27;18.00;43.70
26954;DHT22;14508;50.924;11.600;2023-04-10T14:30:54;18.00;43.70
26954;DHT22;14508;50.924;11.600;2023-04-10T14:33:24;17.90;43.50
26954;DHT22;14508;50.924;11.600;2023-04-10T14:35:52;17.90;43.80
26954;DHT22;14508;50.924;11.600;2023-04-10T14:38:20;18.00;44.10
26954;DHT22;14508;50.924;11.600;2023-04-10T14:40:48;18.00;44.10
26954;DHT22;14508;50.924;11.600;2023-04-10T14:43:16;18.00;43.80
26954;DHT22;14508;50.924;11.600;2023-04-10T14:45:45;18.00;43.50
26954;DHT22;14508;50.924;11.600;2023-04-10T14:48:13;18.00;43.80
26954;DHT22;14508;50.924;11.600;2023-04-10T14:50:42;18.10;43.60
26954;DHT22;14508;50.924;11.600;2023-04-10T14:53:10;18.10;43.70
26954;DHT22;14508;50.924;11.600;2023-04-10T14:55:38;18.20;43.70
26954;DHT22;14508;50.924;11.600;2023-04-10T14:58:06;18.30;43.80
26954;DHT22;14508;50.924;11.600;2023-04-10T15:00:36;18.30;43.30
26954;DHT22;14508;50.924;11.600;2023-04-10T15:03:04;18.20;43.10
26954;DHT22;14508;50.924;11.600;2023-04-10T15:05:34;18.10;43.20
26954;DHT22;14508;50.924;11.600;2023-04-10T15:08:03;18.10;43.30
26954;DHT22;14508;50.924;11.600;2023-04-10T15:10:31;18.10;42.90
26954;DHT22;14508;50.924;11.600;2023-04-10T15:12:59;18.10;43.00
26954;DHT22;14508;50.924;11.600;2023-04-10T15:15:27;18.10;42.70
26954;DHT22;14508;50.924;11.600;2023-04-10T15:17:55;18.10;42.80
26954;DHT22;14508;50.924;11.600;2023-04-10T15:20:22;18.20;42.90
26954;DHT22;14508;50.924;11.600;2023-04-10T15:22:50;18.30;42.80
26954;DHT22;14508;50.924;11.600;2023-04-10T15:25:20;18.30;42.80
26954;DHT22;14508;50.924;11.600;2023-04-10T15:27:47;18.40;42.80
26954;DHT22;14508;50.924;11.600;2023-04-10T15:30:15;18.40;42.70
26954;DHT22;14508;50.924;11.600;2023-04-10T15:32:43;18.50;42.80
26954;DHT22;14508;50.924;11.600;2023-04-10T15:35:11;18.60;42.80
26954;DHT22;14508;50.924;11.600;2023-04-10T15:37:39;18.60;42.50
26954;DHT22;14508;50.924;11.600;2023-04-10T15:40:08;18.70;42.30
26954;DHT22;14508;50.924;11.600;2023-04-10T15:42:37;18.70;42.30
26954;DHT22;14508;50.924;11.600;2023-04-10T15:45:05;18.60;41.70
26954;DHT22;14508;50.924;11.600;2023-04-10T15:47:34;18.60;41.80
26954;DHT22;14508;50.924;11.600;2023-04-10T15:50:01;18.60;41.90
26954;DHT22;14508;50.924;11.600;2023-04-10T15:52:30;18.60;42.00